sensor_id;sensor_type;location;lat;lon;timestamp;P1;durP1;ratioP1;P2;durP2;ratioP2
62435;SDS011;48480;50.252;18.848;2024-01-15T00:00:42;11.90;;;7.10;;
62435;SDS011;48480;50.252;18.848;2024-01-15T00:03:26;15.20;;;7.80;;
62435;SDS011;48480;50.252;18.848;2024-01-15T00:06:11;13.50;;;6.10;;
62435;SDS011;48480;50.252;18.848;2024-01-15T00:08:55;9.40;;;5.50;;
62435;SDS011;48480;50.252;18.848;2024-01-15T00:11:39;11.60;;;5.70;;
62435;SDS011;48480;50.252;18.848;2024-01-15T00:14:23;10.00;;;5.60;;
62435;SDS011;48480;50.252;18.848;2024-01-15T00:17:07;10.20;;;5.90;;
62435;SDS011;48480;50.252;18.848;2024-01-15T00:19:51;13.30;;;6.40;;
62435;SDS011;48480;50.252;18.848;2024-01-15T00:22:35;7.90;;;5.40;;
62435;SDS011;48480;50.252;18.848;2024-01-15T00:25:20;11.90;;;6.00;;
62435;SDS011;48480;50.252;18.848;2024-01-15T00:28:04;14.70;;;7.70;;
62435;SDS011;48480;50.252;18.848;2024-01-15T00:30:48;14.60;;;5.80;;
62435;SDS011;48480;50.252;18.848;2024-01-15T00:33:33;9.30;;;5.80;;
62435;SDS011;48480;50.252;18.848;2024-01-15T00:36:17;8.50;;;4.60;;
62435;SDS011;48480;50.252;18.848;2024-01-15T00:39:01;15.50;;;7.00;;
62435;SDS011;48480;50.252;18.848;2024-01-15T00:41:45;11.20;;;5.90;;
62435;SDS011;48480;50.252;18.848;2024-01-15T00:44:29;14.10;;;5.90;;
62435;SDS011;48480;50.252;18.848;2024-01-15T00:47:13;15.00;;;7.60;;
62435;SDS011;48480;50.252;18.848;2024-01-15T00:49:57;14.00;;;6.30;;
62435;SDS011;48480;50.252;18.848;2024-01-15T00:52:41;11.80;;;6.50;;
62435;SDS011;48480;50.252;18.848;2024-01-15T00:55:25;12.10;;;6.00;;
62435;SDS011;48480;50.252;18.848;2024-01-15T00:58:09;14.00;;;7.50;;
62435;SDS011;48480;50.252;18.848;2024-01-15T01:00:53;16.80;;;8.10;;
62435;SDS011;48480;50.252;18.848;2024-01-15T01:03:36;12.50;;;6.10;;
62435;SDS011;48480;50.252;18.848;2024-01-15T01:06:20;11.00;;;6.10;;
62435;SDS011;48480;50.252;18.848;2024-01-15T01:09:05;10.90;;;4.60;;
62435;SDS011;48480;50.252;18.848;2024-01-15T01:11:49;11.90;;;6.80;;
62435;SDS011;48480;50.252;18.848;2024-01-15T01:14:32;13.20;;;7.60;;
62435;SDS011;48480;50.252;18.848;2024-01-15T01:17:16;9.50;;;5.20;;
62435;SDS011;48480;50.252;18.848;2024-01-15T01:20:01;10.90;;;5.90;;
62435;SDS011;48480;50.252;18.848;2024-01-15T01:22:48;9.50;;;4.00;;
62435;SDS011;48480;50.252;18.848;2024-01-15T01:25:32;11.20;;;5.20;;
62435;SDS011;48480;50.252;18.848;2024-01-15T01:28:16;11.50;;;6.10;;
62435;SDS011;48480;50.252;18.848;2024-01-15T01:31:00;10.50;;;5.70;;
62435;SDS011;48480;50.252;18.848;2024-01-15T01:33:44;12.20;;;6.00;;
62435;SDS011;48480;50.252;18.848;2024-01-15T01:36:28;10.20;;;5.30;;
62435;SDS011;48480;50.252;18.848;2024-01-15T01:39:12;8.60;;;4.30;;
62435;SDS011;48480;50.252;18.848;2024-01-15T01:41:57;9.90;;;4.80;;
62435;SDS011;48480;50.252;18.848;2024-01-15T01:44:41;13.80;;;6.20;;
62435;SDS011;48480;50.252;18.848;2024-01-15T01:47:25;11.50;;;5.50;;
62435;SDS011;48480;50.252;18.848;2024-01-15T01:50:10;11.80;;;5.80;;
62435;SDS011;48480;50.252;18.848;2024-01-15T01:52:55;8.30;;;5.20;;
62435;SDS011;48480;50.252;18.848;2024-01-15T01:55:39;7.70;;;3.80;;
62435;SDS011;48480;50.252;18.848;2024-01-15T01:58:24;10.30;;;5.30;;
62435;SDS011;48480;50.252;18.848;2024-01-15T02:01:10;10.30;;;4.30;;
62435;SDS011;48480;50.252;18.848;2024-01-15T02:03:55;8.30;;;4.00;;
62435;SDS011;48480;50.252;18.848;2024-01-15T02:06:39;7.80;;;4.00;;
62435;SDS011;48480;50.252;18.848;2024-01-15T02:09:23;7.50;;;3.90;;
62435;SDS011;48480;50.252;18.848;2024-01-15T02:12:08;5.30;;;3.20;;
62435;SDS011;48480;50.252;18.848;2024-01-15T02:14:52;8.00;;;4.60;;
62435;SDS011;48480;50.252;18.848;2024-01-15T02:17:56;6.80;;;3.80;;
62435;SDS011;48480;50.252;18.848;2024-01-15T02:20:41;6.70;;;4.20;;
62435;SDS011;48480;50.252;18.848;2024-01-15T02:23:25;6.00;;;3.00;;
62435;SDS011;48480;50.252;18.848;2024-01-15T02:26:08;4.90;;;2.90;;
62435;SDS011;48480;50.252;18.848;2024-01-15T02:28:53;6.30;;;3.60;;
62435;SDS011;48480;50.252;18.848;2024-01-15T02:31:37;7.60;;;4.40;;
62435;SDS011;48480;50.252;18.848;2024-01-15T02:34:22;8.50;;;4.30;;
62435;SDS011;48480;50.252;18.848;2024-01-15T02:37:06;8.50;;;4.20;;
62435;SDS011;48480;50.252;18.848;2024-01-15T02:39:50;7.30;;;3.50;;
62435;SDS011;48480;50.252;18.848;2024-01-15T02:42:34;4.90;;;2.90;;
62435;SDS011;48480;50.252;18.848;2024-01-15T02:45:19;5.90;;;3.30;;
62435;SDS011;48480;50.252;18.848;2024-01-15T02:48:03;4.80;;;2.70;;
62435;SDS011;48480;50.252;18.848;2024-01-15T02:50:48;6.40;;;3.80;;
62435;SDS011;48480;50.252;18.848;2024-01-15T02:53:32;8.80;;;3.90;;
62435;SDS011;48480;50.252;18.848;2024-01-15T02:56:16;6.20;;;3.40;;
62435;SDS011;48480;50.252;18.848;2024-01-15T02:59:00;6.10;;;3.20;;
62435;SDS011;48480;50.252;18.848;2024-01-15T03:01:44;7.60;;;3.50;;
62435;SDS011;48480;50.252;18.848;2024-01-15T03:04:28;6.20;;;3.60;;
62435;SDS011;48480;50.252;18.848;2024-01-15T03:07:12;4.20;;;2.90;;
62435;SDS011;48480;50.252;18.848;2024-01-15T03:09:56;6.60;;;3.20;;
62435;SDS011;48480;50.252;18.848;2024-01-15T03:12:40;5.50;;;3.00;;
62435;SDS011;48480;50.252;18.848;2024-01-15T03:15:24;5.40;;;3.60;;
62435;SDS011;48480;50.252;18.848;2024-01-15T03:18:08;4.80;;;3.30;;
62435;SDS011;48480;50.252;18.848;2024-01-15T03:20:52;6.40;;;3.70;;
62435;SDS011;48480;50.252;18.848;2024-01-15T03:23:36;6.10;;;3.10;;
62435;SDS011;48480;50.252;18.848;2024-01-15T03:26:20;5.30;;;2.60;;
62435;SDS011;48480;50.252;18.848;2024-01-15T03:29:04;7.20;;;3.60;;
62435;SDS011;48480;50.252;18.848;2024-01-15T03:31:48;7.40;;;3.80;;
62435;SDS011;48480;50.252;18.848;2024-01-15T03:34:32;7.50;;;3.70;;
62435;SDS011;48480;50.252;18.848;2024-01-15T03:37:16;4.50;;;3.00;;
62435;SDS011;48480;50.252;18.848;2024-01-15T03:40:00;4.40;;;2.90;;
62435;SDS011;48480;50.252;18.848;2024-01-15T03:42:44;8.70;;;3.40;;
62435;SDS011;48480;50.252;18.848;2024-01-15T03:45:27;6.50;;;3.90;;
62435;SDS011;48480;50.252;18.848;2024-01-15T03:48:11;6.80;;;3.60;;
62435;SDS011;48480;50.252;18.848;2024-01-15T03:50:55;8.40;;;4.20;;
62435;SDS011;48480;50.252;18.848;2024-01-15T03:53:39;8.70;;;4.60;;
62435;SDS011;48480;50.252;18.848;2024-01-15T03:56:23;5.40;;;2.90;;
62435;SDS011;48480;50.252;18.848;2024-01-15T03:59:07;7.30;;;3.30;;
62435;SDS011;48480;50.252;18.848;2024-01-15T04:01:51;7.30;;;3.60;;
62435;SDS011;48480;50.252;18.848;2024-01-15T04:04:36;7.70;;;3.80;;
62435;SDS011;48480;50.252;18.848;2024-01-15T04:07:20;6.40;;;4.00;;
62435;SDS011;48480;50.252;18.848;2024-01-15T04:10:03;8.00;;;4.70;;
62435;SDS011;48480;50.252;18.848;2024-01-15T04:12:48;8.90;;;3.00;;
62435;SDS011;48480;50.252;18.848;2024-01-15T04:15:32;7.50;;;3.60;;
62435;SDS011;48480;50.252;18.848;2024-01-15T04:18:16;8.50;;;4.00;;
62435;SDS011;48480;50.252;18.848;2024-01-15T04:21:03;7.60;;;4.40;;
62435;SDS011;48480;50.252;18.848;2024-01-15T04:23:48;10.80;;;4.60;;
62435;SDS011;48480;50.252;18.848;2024-01-15T04:26:32;10.40;;;5.30;;
62435;SDS011;48480;50.252;18.848;2024-01-15T04:29:17;7.90;;;5.20;;
62435;SDS011;48480;50.252;18.848;2024-01-15T04:32:01;7.70;;;4.00;;
62435;SDS011;48480;50.252;18.848;2024-01-15T04:34:45;12.60;;;4.70;;
62435;SDS011;48480;50.252;18.848;2024-01-15T04:37:29;8.10;;;3.80;;
62435;SDS011;48480;50.252;18.848;2024-01-15T04:40:13;7.80;;;3.70;;
62435;SDS011;48480;50.252;18.848;2024-01-15T04:42:57;8.90;;;4.30;;
62435;SDS011;48480;50.252;18.848;2024-01-15T04:45:41;10.30;;;5.40;;
62435;SDS011;48480;50.252;18.848;2024-01-15T04:48:25;8.50;;;4.90;;
62435;SDS011;48480;50.252;18.848;2024-01-15T04:51:09;7.20;;;4.10;;
62435;SDS011;48480;50.252;18.848;2024-01-15T04:53:54;9.80;;;3.90;;
62435;SDS011;48480;50.252;18.848;2024-01-15T04:56:37;9.10;;;5.00;;
62435;SDS011;48480;50.252;18.848;2024-01-15T04:59:21;11.10;;;5.90;;
62435;SDS011;48480;50.252;18.848;2024-01-15T05:02:05;11.20;;;6.10;;
62435;SDS011;48480;50.252;18.848;2024-01-15T05:04:49;9.30;;;5.10;;
62435;SDS011;48480;50.252;18.848;2024-01-15T05:07:33;11.40;;;5.30;;
62435;SDS011;48480;50.252;18.848;2024-01-15T05:10:17;10.80;;;5.30;;
62435;SDS011;48480;50.252;18.848;2024-01-15T05:13:01;8.00;;;4.20;;
62435;SDS011;48480;50.252;18.848;2024-01-15T05:15:46;10.50;;;5.90;;
62435;SDS011;48480;50.252;18.848;2024-01-15T05:18:30;7.40;;;3.60;;
62435;SDS011;48480;50.252;18.848;2024-01-15T05:21:14;5.00;;;3.40;;
62435;SDS011;48480;50.252;18.848;2024-01-15T05:23:58;8.90;;;4.30;;
62435;SDS011;48480;50.252;18.848;2024-01-15T05:26:41;8.30;;;4.80;;
62435;SDS011;48480;50.252;18.848;2024-01-15T05:29:26;8.70;;;4.20;;
62435;SDS011;48480;50.252;18.848;2024-01-15T05:32:10;11.90;;;5.10;;
62435;SDS011;48480;50.252;18.848;2024-01-15T05:34:54;10.30;;;5.20;;
62435;SDS011;48480;50.252;18.848;2024-01-15T05:37:40;9.90;;;5.00;;
62435;SDS011;48480;50.252;18.848;2024-01-15T05:40:27;8.30;;;4.30;;
62435;SDS011;48480;50.252;18.848;2024-01-15T05:43:11;11.00;;;5.90;;
62435;SDS011;48480;50.252;18.848;2024-01-15T05:45:55;15.50;;;7.20;;
62435;SDS011;48480;50.252;18.848;2024-01-15T05:48:39;12.10;;;6.10;;
62435;SDS011;48480;50.252;18.848;2024-01-15T05:51:23;12.80;;;5.60;;
62435;SDS011;48480;50.252;18.848;2024-01-15T05:54:07;12.20;;;5.70;;
62435;SDS011;48480;50.252;18.848;2024-01-15T05:56:51;18.40;;;7.00;;
62435;SDS011;48480;50.252;18.848;2024-01-15T05:59:35;30.80;;;9.90;;
62435;SDS011;48480;50.252;18.848;2024-01-15T06:02:19;19.00;;;8.20;;
62435;SDS011;48480;50.252;18.848;2024-01-15T06:05:04;42.00;;;15.70;;
62435;SDS011;48480;50.252;18.848;2024-01-15T06:07:48;36.90;;;12.90;;
62435;SDS011;48480;50.252;18.848;2024-01-15T06:10:32;18.80;;;8.90;;
62435;SDS011;48480;50.252;18.848;2024-01-15T06:13:17;18.60;;;8.30;;
62435;SDS011;48480;50.252;18.848;2024-01-15T06:16:01;12.40;;;6.00;;
62435;SDS011;48480;50.252;18.848;2024-01-15T06:18:45;15.70;;;7.30;;
62435;SDS011;48480;50.252;18.848;2024-01-15T06:21:29;22.80;;;9.10;;
62435;SDS011;48480;50.252;18.848;2024-01-15T06:24:13;21.70;;;8.00;;
62435;SDS011;48480;50.252;18.848;2024-01-15T06:26:58;19.10;;;7.80;;
62435;SDS011;48480;50.252;18.848;2024-01-15T06:29:45;13.10;;;6.40;;
62435;SDS011;48480;50.252;18.848;2024-01-15T06:32:31;15.80;;;7.70;;
62435;SDS011;48480;50.252;18.848;2024-01-15T06:35:15;14.80;;;7.10;;
62435;SDS011;48480;50.252;18.848;2024-01-15T06:37:59;12.80;;;6.50;;
62435;SDS011;48480;50.252;18.848;2024-01-15T06:40:43;15.00;;;7.30;;
62435;SDS011;48480;50.252;18.848;2024-01-15T06:43:29;15.10;;;7.00;;
62435;SDS011;48480;50.252;18.848;2024-01-15T06:46:13;10.80;;;6.00;;
62435;SDS011;48480;50.252;18.848;2024-01-15T06:49:03;13.90;;;6.50;;
62435;SDS011;48480;50.252;18.848;2024-01-15T06:51:47;14.50;;;7.30;;
62435;SDS011;48480;50.252;18.848;2024-01-15T06:54:31;13.20;;;6.20;;
62435;SDS011;48480;50.252;18.848;2024-01-15T06:57:14;14.00;;;7.00;;
62435;SDS011;48480;50.252;18.848;2024-01-15T06:59:59;16.90;;;7.00;;
62435;SDS011;48480;50.252;18.848;2024-01-15T07:02:44;10.00;;;5.90;;
62435;SDS011;48480;50.252;18.848;2024-01-15T07:05:28;9.90;;;4.40;;
62435;SDS011;48480;50.252;18.848;2024-01-15T07:08:14;8.40;;;5.20;;
62435;SDS011;48480;50.252;18.848;2024-01-15T07:10:58;9.60;;;5.40;;
62435;SDS011;48480;50.252;18.848;2024-01-15T07:13:42;15.40;;;6.70;;
62435;SDS011;48480;50.252;18.848;2024-01-15T07:16:26;7.70;;;4.40;;
62435;SDS011;48480;50.252;18.848;2024-01-15T07:19:10;11.90;;;7.20;;
62435;SDS011;48480;50.252;18.848;2024-01-15T07:21:54;12.50;;;7.40;;
62435;SDS011;48480;50.252;18.848;2024-01-15T07:24:38;12.90;;;7.90;;
62435;SDS011;48480;50.252;18.848;2024-01-15T07:27:22;11.30;;;7.20;;
62435;SDS011;48480;50.252;18.848;2024-01-15T07:30:06;14.80;;;8.80;;
62435;SDS011;48480;50.252;18.848;2024-01-15T07:32:51;11.10;;;7.00;;
62435;SDS011;48480;50.252;18.848;2024-01-15T07:35:36;11.40;;;5.20;;
62435;SDS011;48480;50.252;18.848;2024-01-15T07:38:20;12.30;;;6.70;;
62435;SDS011;48480;50.252;18.848;2024-01-15T07:41:05;16.60;;;8.10;;
62435;SDS011;48480;50.252;18.848;2024-01-15T07:43:49;13.40;;;7.10;;
62435;SDS011;48480;50.252;18.848;2024-01-15T07:46:33;15.30;;;8.60;;
62435;SDS011;48480;50.252;18.848;2024-01-15T07:49:17;13.30;;;7.00;;
62435;SDS011;48480;50.252;18.848;2024-01-15T07:52:01;14.60;;;7.90;;
62435;SDS011;48480;50.252;18.848;2024-01-15T07:54:46;13.90;;;7.70;;
62435;SDS011;48480;50.252;18.848;2024-01-15T07:57:30;17.20;;;7.60;;
62435;SDS011;48480;50.252;18.848;2024-01-15T08:00:14;13.60;;;7.40;;
62435;SDS011;48480;50.252;18.848;2024-01-15T08:02:59;16.70;;;8.80;;
62435;SDS011;48480;50.252;18.848;2024-01-15T08:05:43;19.60;;;9.70;;
62435;SDS011;48480;50.252;18.848;2024-01-15T08:08:27;12.50;;;7.20;;
62435;SDS011;48480;50.252;18.848;2024-01-15T08:11:11;19.80;;;8.60;;
62435;SDS011;48480;50.252;18.848;2024-01-15T08:13:55;15.50;;;7.90;;
62435;SDS011;48480;50.252;18.848;2024-01-15T08:16:39;15.20;;;7.20;;
62435;SDS011;48480;50.252;18.848;2024-01-15T08:19:24;15.00;;;8.20;;
62435;SDS011;48480;50.252;18.848;2024-01-15T08:22:07;15.50;;;7.80;;
62435;SDS011;48480;50.252;18.848;2024-01-15T08:24:51;13.60;;;7.70;;
62435;SDS011;48480;50.252;18.848;2024-01-15T08:27:37;12.60;;;6.60;;
62435;SDS011;48480;50.252;18.848;2024-01-15T08:30:21;11.10;;;6.40;;
62435;SDS011;48480;50.252;18.848;2024-01-15T08:33:08;14.10;;;6.90;;
62435;SDS011;48480;50.252;18.848;2024-01-15T08:35:52;13.20;;;6.10;;
62435;SDS011;48480;50.252;18.848;2024-01-15T08:38:36;13.40;;;7.30;;
62435;SDS011;48480;50.252;18.848;2024-01-15T08:41:20;10.10;;;6.00;;
62435;SDS011;48480;50.252;18.848;2024-01-15T08:44:04;12.40;;;6.80;;
62435;SDS011;48480;50.252;18.848;2024-01-15T08:46:48;13.80;;;6.30;;
62435;SDS011;48480;50.252;18.848;2024-01-15T08:49:32;12.50;;;6.60;;
62435;SDS011;48480;50.252;18.848;2024-01-15T08:52:17;8.10;;;4.10;;
62435;SDS011;48480;50.252;18.848;2024-01-15T08:55:01;10.90;;;5.80;;
62435;SDS011;48480;50.252;18.848;2024-01-15T08:57:45;16.90;;;8.50;;
62435;SDS011;48480;50.252;18.848;2024-01-15T09:00:30;17.50;;;7.70;;
62435;SDS011;48480;50.252;18.848;2024-01-15T09:03:13;19.10;;;10.10;;
62435;SDS011;48480;50.252;18.848;2024-01-15T09:05:58;13.60;;;7.00;;
62435;SDS011;48480;50.252;18.848;2024-01-15T09:08:42;21.00;;;9.20;;
62435;SDS011;48480;50.252;18.848;2024-01-15T09:11:26;21.90;;;10.10;;
62435;SDS011;48480;50.252;18.848;2024-01-15T09:14:10;13.70;;;7.30;;
62435;SDS011;48480;50.252;18.848;2024-01-15T09:16:54;26.80;;;12.10;;
62435;SDS011;48480;50.252;18.848;2024-01-15T09:19:38;18.90;;;10.80;;
62435;SDS011;48480;50.252;18.848;2024-01-15T09:22:25;22.00;;;10.60;;
62435;SDS011;48480;50.252;18.848;2024-01-15T09:25:11;20.30;;;9.70;;
62435;SDS011;48480;50.252;18.848;2024-01-15T09:30:58;15.50;;;8.60;;
62435;SDS011;48480;50.252;18.848;2024-01-15T09:33:42;16.60;;;9.20;;
62435;SDS011;48480;50.252;18.848;2024-01-15T09:36:27;19.10;;;9.30;;
62435;SDS011;48480;50.252;18.848;2024-01-15T09:39:12;22.30;;;10.40;;
62435;SDS011;48480;50.252;18.848;2024-01-15T09:41:56;22.30;;;11.10;;
62435;SDS011;48480;50.252;18.848;2024-01-15T09:44:41;20.80;;;10.90;;
62435;SDS011;48480;50.252;18.848;2024-01-15T09:47:25;15.70;;;8.30;;
62435;SDS011;48480;50.252;18.848;2024-01-15T09:50:09;16.80;;;7.50;;
62435;SDS011;48480;50.252;18.848;2024-01-15T09:52:53;16.40;;;8.70;;
62435;SDS011;48480;50.252;18.848;2024-01-15T09:55:40;22.20;;;11.00;;
62435;SDS011;48480;50.252;18.848;2024-01-15T09:58:24;20.60;;;10.30;;
62435;SDS011;48480;50.252;18.848;2024-01-15T10:01:08;22.90;;;11.00;;
62435;SDS011;48480;50.252;18.848;2024-01-15T10:03:54;27.20;;;12.90;;
62435;SDS011;48480;50.252;18.848;2024-01-15T10:06:39;28.80;;;14.00;;
62435;SDS011;48480;50.252;18.848;2024-01-15T10:09:29;24.80;;;11.50;;
62435;SDS011;48480;50.252;18.848;2024-01-15T10:12:14;22.40;;;12.30;;
62435;SDS011;48480;50.252;18.848;2024-01-15T10:14:58;26.10;;;11.90;;
62435;SDS011;48480;50.252;18.848;2024-01-15T10:17:42;20.20;;;11.00;;
62435;SDS011;48480;50.252;18.848;2024-01-15T10:20:26;23.60;;;14.60;;
62435;SDS011;48480;50.252;18.848;2024-01-15T10:23:10;19.80;;;9.90;;
62435;SDS011;48480;50.252;18.848;2024-01-15T10:25:56;14.60;;;8.40;;
62435;SDS011;48480;50.252;18.848;2024-01-15T10:28:40;17.30;;;8.60;;
62435;SDS011;48480;50.252;18.848;2024-01-15T10:31:26;17.10;;;8.50;;
62435;SDS011;48480;50.252;18.848;2024-01-15T10:34:11;16.20;;;9.50;;
62435;SDS011;48480;50.252;18.848;2024-01-15T10:36:56;17.70;;;9.40;;
62435;SDS011;48480;50.252;18.848;2024-01-15T10:39:40;13.70;;;7.30;;
62435;SDS011;48480;50.252;18.848;2024-01-15T10:42:23;9.10;;;5.70;;
62435;SDS011;48480;50.252;18.848;2024-01-15T10:45:07;15.50;;;7.50;;
62435;SDS011;48480;50.252;18.848;2024-01-15T10:47:53;12.50;;;7.30;;
62435;SDS011;48480;50.252;18.848;2024-01-15T10:50:38;15.60;;;7.80;;
62435;SDS011;48480;50.252;18.848;2024-01-15T10:53:23;13.50;;;7.10;;
62435;SDS011;48480;50.252;18.848;2024-01-15T10:56:08;12.50;;;7.30;;
62435;SDS011;48480;50.252;18.848;2024-01-15T10:58:55;12.80;;;7.10;;
62435;SDS011;48480;50.252;18.848;2024-01-15T11:01:40;14.30;;;7.00;;
62435;SDS011;48480;50.252;18.848;2024-01-15T11:04:26;11.20;;;7.00;;
62435;SDS011;48480;50.252;18.848;2024-01-15T11:07:11;13.20;;;7.50;;
62435;SDS011;48480;50.252;18.848;2024-01-15T11:09:57;21.00;;;11.80;;
62435;SDS011;48480;50.252;18.848;2024-01-15T11:12:44;13.50;;;8.00;;
62435;SDS011;48480;50.252;18.848;2024-01-15T11:15:31;19.60;;;8.70;;
62435;SDS011;48480;50.252;18.848;2024-01-15T11:18:15;22.60;;;10.30;;
62435;SDS011;48480;50.252;18.848;2024-01-15T11:24:01;18.90;;;11.00;;
62435;SDS011;48480;50.252;18.848;2024-01-15T11:26:46;18.40;;;10.80;;
62435;SDS011;48480;50.252;18.848;2024-01-15T11:29:34;20.40;;;11.00;;
62435;SDS011;48480;50.252;18.848;2024-01-15T11:32:21;17.90;;;9.50;;
62435;SDS011;48480;50.252;18.848;2024-01-15T11:35:17;15.90;;;9.70;;
62435;SDS011;48480;50.252;18.848;2024-01-15T11:38:02;12.20;;;6.80;;
62435;SDS011;48480;50.252;18.848;2024-01-15T11:40:46;13.80;;;7.50;;
62435;SDS011;48480;50.252;18.848;2024-01-15T11:43:31;12.20;;;6.80;;
62435;SDS011;48480;50.252;18.848;2024-01-15T11:46:17;18.20;;;10.00;;
62435;SDS011;48480;50.252;18.848;2024-01-15T11:49:03;15.80;;;9.10;;
62435;SDS011;48480;50.252;18.848;2024-01-15T11:51:49;16.70;;;8.50;;
62435;SDS011;48480;50.252;18.848;2024-01-15T11:54:37;17.90;;;10.80;;
62435;SDS011;48480;50.252;18.848;2024-01-15T11:57:25;16.00;;;9.70;;
62435;SDS011;48480;50.252;18.848;2024-01-15T12:00:16;23.90;;;13.00;;
62435;SDS011;48480;50.252;18.848;2024-01-15T12:03:01;18.90;;;10.20;;
62435;SDS011;48480;50.252;18.848;2024-01-15T12:05:45;19.50;;;11.40;;
62435;SDS011;48480;50.252;18.848;2024-01-15T12:08:29;21.80;;;11.30;;
62435;SDS011;48480;50.252;18.848;2024-01-15T12:11:13;15.30;;;7.30;;
62435;SDS011;48480;50.252;18.848;2024-01-15T12:14:02;15.10;;;9.40;;
62435;SDS011;48480;50.252;18.848;2024-01-15T12:16:46;20.60;;;11.40;;
62435;SDS011;48480;50.252;18.848;2024-01-15T12:19:31;22.70;;;12.00;;
62435;SDS011;48480;50.252;18.848;2024-01-15T12:22:14;19.20;;;9.90;;
62435;SDS011;48480;50.252;18.848;2024-01-15T12:24:59;22.00;;;10.20;;
62435;SDS011;48480;50.252;18.848;2024-01-15T12:27:43;15.90;;;10.10;;
62435;SDS011;48480;50.252;18.848;2024-01-15T12:30:28;18.40;;;9.90;;
62435;SDS011;48480;50.252;18.848;2024-01-15T12:33:13;17.50;;;9.10;;
62435;SDS011;48480;50.252;18.848;2024-01-15T12:35:57;23.20;;;12.10;;
62435;SDS011;48480;50.252;18.848;2024-01-15T12:38:40;20.60;;;10.30;;
62435;SDS011;48480;50.252;18.848;2024-01-15T12:41:24;20.40;;;9.40;;
62435;SDS011;48480;50.252;18.848;2024-01-15T12:44:09;18.10;;;9.10;;
62435;SDS011;48480;50.252;18.848;2024-01-15T12:46:53;16.00;;;8.30;;
62435;SDS011;48480;50.252;18.848;2024-01-15T12:49:37;18.80;;;9.80;;
62435;SDS011;48480;50.252;18.848;2024-01-15T12:52:23;15.60;;;9.00;;
62435;SDS011;48480;50.252;18.848;2024-01-15T12:55:07;13.60;;;7.40;;
62435;SDS011;48480;50.252;18.848;2024-01-15T12:57:52;17.20;;;7.90;;
62435;SDS011;48480;50.252;18.848;2024-01-15T13:00:38;16.20;;;8.80;;
62435;SDS011;48480;50.252;18.848;2024-01-15T13:03:22;18.50;;;10.40;;
62435;SDS011;48480;50.252;18.848;2024-01-15T13:06:06;15.20;;;8.30;;
62435;SDS011;48480;50.252;18.848;2024-01-15T13:08:50;16.40;;;8.70;;
62435;SDS011;48480;50.252;18.848;2024-01-15T13:11:34;18.70;;;9.30;;
62435;SDS011;48480;50.252;18.848;2024-01-15T13:14:18;16.00;;;8.70;;
62435;SDS011;48480;50.252;18.848;2024-01-15T13:17:02;17.50;;;9.50;;
62435;SDS011;48480;50.252;18.848;2024-01-15T13:19:47;17.50;;;9.50;;
62435;SDS011;48480;50.252;18.848;2024-01-15T13:22:31;15.60;;;8.20;;
62435;SDS011;48480;50.252;18.848;2024-01-15T13:25:15;17.50;;;9.10;;
62435;SDS011;48480;50.252;18.848;2024-01-15T13:27:59;22.20;;;11.80;;
62435;SDS011;48480;50.252;18.848;2024-01-15T13:30:43;21.00;;;10.80;;
62435;SDS011;48480;50.252;18.848;2024-01-15T13:33:27;17.80;;;8.90;;
62435;SDS011;48480;50.252;18.848;2024-01-15T13:36:12;19.70;;;11.10;;
62435;SDS011;48480;50.252;18.848;2024-01-15T13:38:56;20.00;;;9.90;;
62435;SDS011;48480;50.252;18.848;2024-01-15T13:41:39;14.60;;;7.30;;
62435;SDS011;48480;50.252;18.848;2024-01-15T13:44:23;17.00;;;9.40;;
62435;SDS011;48480;50.252;18.848;2024-01-15T13:47:08;15.50;;;7.40;;
62435;SDS011;48480;50.252;18.848;2024-01-15T13:49:53;18.20;;;8.10;;
62435;SDS011;48480;50.252;18.848;2024-01-15T13:52:39;17.20;;;8.90;;
62435;SDS011;48480;50.252;18.848;2024-01-15T13:55:23;14.10;;;7.60;;
62435;SDS011;48480;50.252;18.848;2024-01-15T13:58:07;15.10;;;7.00;;
62435;SDS011;48480;50.252;18.848;2024-01-15T14:00:52;10.30;;;6.30;;
62435;SDS011;48480;50.252;18.848;2024-01-15T14:03:35;16.10;;;8.40;;
62435;SDS011;48480;50.252;18.848;2024-01-15T14:06:20;14.60;;;8.10;;
62435;SDS011;48480;50.252;18.848;2024-01-15T14:09:03;7.60;;;4.50;;
62435;SDS011;48480;50.252;18.848;2024-01-15T14:11:49;15.70;;;7.90;;
62435;SDS011;48480;50.252;18.848;2024-01-15T14:14:33;12.30;;;6.30;;
62435;SDS011;48480;50.252;18.848;2024-01-15T14:17:17;15.90;;;7.60;;
62435;SDS011;48480;50.252;18.848;2024-01-15T14:20:01;23.40;;;9.80;;
62435;SDS011;48480;50.252;18.848;2024-01-15T14:22:48;19.10;;;6.50;;
62435;SDS011;48480;50.252;18.848;2024-01-15T14:25:33;23.60;;;10.00;;
62435;SDS011;48480;50.252;18.848;2024-01-15T14:28:17;15.40;;;7.00;;
62435;SDS011;48480;50.252;18.848;2024-01-15T14:31:01;26.90;;;10.00;;
62435;SDS011;48480;50.252;18.848;2024-01-15T14:33:45;21.90;;;9.00;;
62435;SDS011;48480;50.252;18.848;2024-01-15T14:36:29;21.00;;;8.90;;
62435;SDS011;48480;50.252;18.848;2024-01-15T14:39:13;24.70;;;11.70;;
62435;SDS011;48480;50.252;18.848;2024-01-15T14:41:57;23.90;;;10.70;;
62435;SDS011;48480;50.252;18.848;2024-01-15T14:44:41;12.10;;;5.80;;
62435;SDS011;48480;50.252;18.848;2024-01-15T14:47:25;14.30;;;7.10;;
62435;SDS011;48480;50.252;18.848;2024-01-15T14:50:11;12.50;;;5.90;;
62435;SDS011;48480;50.252;18.848;2024-01-15T14:52:59;17.40;;;7.90;;
62435;SDS011;48480;50.252;18.848;2024-01-15T15:02:17;13.10;;;5.90;;
62435;SDS011;48480;50.252;18.848;2024-01-15T15:04:52;12.80;;;6.50;;
62435;SDS011;48480;50.252;18.848;2024-01-15T15:07:36;13.60;;;7.10;;
62435;SDS011;48480;50.252;18.848;2024-01-15T15:10:22;18.90;;;8.60;;
62435;SDS011;48480;50.252;18.848;2024-01-15T15:13:06;17.10;;;8.30;;
62435;SDS011;48480;50.252;18.848;2024-01-15T15:15:50;20.60;;;8.80;;
62435;SDS011;48480;50.252;18.848;2024-01-15T15:18:34;18.60;;;8.00;;
62435;SDS011;48480;50.252;18.848;2024-01-15T15:21:18;15.90;;;7.80;;
62435;SDS011;48480;50.252;18.848;2024-01-15T15:24:02;16.80;;;8.20;;
62435;SDS011;48480;50.252;18.848;2024-01-15T15:26:46;15.80;;;7.00;;
62435;SDS011;48480;50.252;18.848;2024-01-15T15:29:30;15.20;;;7.20;;
62435;SDS011;48480;50.252;18.848;2024-01-15T15:32:14;12.60;;;6.60;;
62435;SDS011;48480;50.252;18.848;2024-01-15T15:34:58;12.10;;;6.10;;
62435;SDS011;48480;50.252;18.848;2024-01-15T15:37:42;12.20;;;6.20;;
62435;SDS011;48480;50.252;18.848;2024-01-15T15:40:27;14.00;;;6.90;;
62435;SDS011;48480;50.252;18.848;2024-01-15T15:43:11;15.30;;;7.00;;
62435;SDS011;48480;50.252;18.848;2024-01-15T15:45:55;13.70;;;7.40;;
62435;SDS011;48480;50.252;18.848;2024-01-15T15:48:41;18.70;;;7.60;;
62435;SDS011;48480;50.252;18.848;2024-01-15T15:51:25;20.50;;;8.80;;
62435;SDS011;48480;50.252;18.848;2024-01-15T15:54:10;21.90;;;7.80;;
62435;SDS011;48480;50.252;18.848;2024-01-15T15:56:55;16.80;;;7.60;;
62435;SDS011;48480;50.252;18.848;2024-01-15T15:59:39;17.00;;;7.50;;
62435;SDS011;48480;50.252;18.848;2024-01-15T16:02:23;18.20;;;7.30;;
62435;SDS011;48480;50.252;18.848;2024-01-15T16:05:07;17.90;;;9.70;;
62435;SDS011;48480;50.252;18.848;2024-01-15T16:07:53;20.00;;;9.00;;
62435;SDS011;48480;50.252;18.848;2024-01-15T16:10:37;19.30;;;8.40;;
62435;SDS011;48480;50.252;18.848;2024-01-15T16:13:22;19.90;;;8.40;;
62435;SDS011;48480;50.252;18.848;2024-01-15T16:16:06;15.60;;;8.60;;